Time;durP1;ratioP1;P1;durP2;ratioP2;P2;SDS_P1;SDS_P2;PMS_P1;PMS_P2;Temp;Humidity;BMP_temperature;BMP_pressure;BME280_temperature;BME280_humidity;BME280_pressure;Samples;Min_cycle;Max_cycle;Signal;HPM_P1;HPM_P2
2023/01/24 00:01:38;;;;;;;40.75;14.40;;;5.20;93.00;;;;;;5104520;28;20032;-58
2023/01/24 00:04:04;;;;;;;35.78;12.52;;;5.20;92.90;;;;;;5105586;28;20437;-58
2023/01/24 00:06:29;;;;;;;36.80;14.80;;;5.20;92.90;;;;;;5087023;28;20050;-58
2023/01/24 00:08:55;;;;;;;32.35;13.45;;;5.20;92.90;;;;;;5104237;28;20024;-58
2023/01/24 00:11:20;;;;;;;38.35;13.65;;;5.20;92.90;;;;;;5105533;28;20024;-58
2023/01/24 00:13:46;;;;;;;40.10;13.90;;;5.20;92.90;;;;;;5105450;28;20047;-58
2023/01/24 00:16:19;;;;;;;31.70;13.48;;;5.20;93.00;;;;;;5105310;28;20137;-58
2023/01/24 00:18:45;;;;;;;35.22;13.70;;;5.20;93.00;;;;;;5104110;28;20034;-58
2023/01/24 00:21:15;;;;;;;36.15;13.25;;;5.20;93.00;;;;;;5087092;28;20047;-58
2023/01/24 00:23:42;;;;;;;31.08;13.27;;;5.10;92.90;;;;;;5087295;28;20100;-58
2023/01/24 00:26:07;;;;;;;26.38;13.10;;;5.10;92.90;;;;;;5105355;28;20027;-58
2023/01/24 00:28:33;;;;;;;36.80;13.70;;;5.10;92.90;;;;;;5087233;28;20032;-58
2023/01/24 00:30:58;;;;;;;29.17;13.15;;;5.10;92.90;;;;;;5103790;28;20119;-58
2023/01/24 00:33:24;;;;;;;26.15;12.30;;;5.10;92.90;;;;;;5103738;28;20036;-58
2023/01/24 00:35:51;;;;;;;31.77;13.45;;;5.10;92.90;;;;;;5086918;28;20021;-58
2023/01/24 00:38:17;;;;;;;24.13;12.55;;;5.10;92.90;;;;;;5087205;28;20029;-58
2023/01/24 00:40:43;;;;;;;24.30;12.98;;;5.10;92.90;;;;;;5103936;28;20074;-58
2023/01/24 00:43:08;;;;;;;26.88;12.40;;;5.10;92.90;;;;;;5103473;28;20036;-58
2023/01/24 00:45:37;;;;;;;28.17;13.02;;;5.10;92.90;;;;;;5086886;28;20074;-58
2023/01/24 00:48:04;;;;;;;23.63;13.23;;;5.10;92.90;;;;;;5103420;28;20038;-58
2023/01/24 00:50:29;;;;;;;29.02;13.27;;;5.10;92.90;;;;;;5086766;28;20036;-58
2023/01/24 00:52:55;;;;;;;25.25;13.10;;;5.10;92.90;;;;;;5103525;28;20340;-58
2023/01/24 00:55:20;;;;;;;21.85;12.77;;;5.10;92.90;;;;;;5086869;28;20024;-58
2023/01/24 00:57:46;;;;;;;27.45;13.13;;;5.10;92.90;;;;;;5104629;28;20038;-58
2023/01/24 01:00:12;;;;;;;22.83;11.70;;;5.10;92.90;;;;;;5086532;28;20048;-58
2023/01/24 01:02:38;;;;;;;22.92;11.95;;;5.10;92.90;;;;;;5104922;28;20036;-58
2023/01/24 01:05:04;;;;;;;26.33;12.23;;;5.10;92.90;;;;;;5104921;28;20035;-58
2023/01/24 01:07:29;;;;;;;28.23;13.23;;;5.10;92.90;;;;;;5103260;28;20081;-59
2023/01/24 01:09:55;;;;;;;21.95;12.30;;;5.00;92.90;;;;;;5104561;28;20020;-58
2023/01/24 01:12:20;;;;;;;24.95;11.85;;;5.00;92.90;;;;;;5103227;28;20346;-58
2023/01/24 01:14:46;;;;;;;25.13;12.02;;;5.00;92.90;;;;;;5103238;28;20453;-58
2023/01/24 01:17:12;;;;;;;24.15;11.85;;;5.00;92.90;;;;;;5106110;28;20067;-58
2023/01/24 01:19:37;;;;;;;20.27;11.52;;;5.00;92.90;;;;;;5107264;28;20016;-59
2023/01/24 01:22:03;;;;;;;22.52;12.07;;;5.00;92.90;;;;;;5108671;28;20046;-59
2023/01/24 01:24:28;;;;;;;21.92;12.43;;;5.00;92.90;;;;;;5108586;28;20016;-58
2023/01/24 01:26:54;;;;;;;18.50;12.07;;;5.00;92.90;;;;;;5107145;28;20040;-59
2023/01/24 01:29:19;;;;;;;25.23;10.85;;;5.00;92.90;;;;;;5108570;28;20064;-58
2023/01/24 01:31:45;;;;;;;16.08;10.80;;;5.00;92.90;;;;;;5108520;28;20016;-59
2023/01/24 01:34:10;;;;;;;19.98;10.52;;;5.00;92.90;;;;;;5107125;28;20035;-59
2023/01/24 01:36:36;;;;;;;19.25;11.55;;;5.00;92.90;;;;;;5107065;28;20026;-58
2023/01/24 01:39:01;;;;;;;23.77;11.80;;;5.00;92.80;;;;;;5108414;28;20024;-58
2023/01/24 01:41:27;;;;;;;21.80;10.43;;;5.00;92.90;;;;;;5107126;28;20024;-58
2023/01/24 01:46:44;;;;;;;17.73;10.90;;;5.00;92.90;;;;;;5108293;28;20035;-58
2023/01/24 01:49:18;;;;;;;21.98;11.20;;;5.00;92.90;;;;;;5089926;28;20038;-58
2023/01/24 01:51:46;;;;;;;18.20;10.57;;;5.00;92.90;;;;;;5106958;28;20035;-58
2023/01/24 01:54:14;;;;;;;16.40;10.23;;;4.90;92.90;;;;;;5089786;28;20038;-58
2023/01/24 01:56:56;;;;;;;22.65;11.48;;;4.90;92.90;;;;;;5089946;28;20027;-58
2023/01/24 01:59:24;;;;;;;18.90;11.10;;;4.90;92.90;;;;;;5074321;28;20023;-58
2023/01/24 02:01:49;;;;;;;16.00;10.95;;;4.90;92.90;;;;;;5089917;28;20024;-58
2023/01/24 02:04:18;;;;;;;19.20;10.50;;;4.90;92.90;;;;;;5106782;28;20107;-58
2023/01/24 02:06:47;;;;;;;25.25;11.05;;;4.90;92.90;;;;;;5089923;28;20047;-58
2023/01/24 02:09:13;;;;;;;15.52;10.27;;;4.90;92.90;;;;;;5107890;28;20028;-58
2023/01/24 02:11:38;;;;;;;20.55;11.27;;;4.90;92.90;;;;;;5107722;28;20024;-58
2023/01/24 02:16:49;;;;;;;21.90;12.23;;;4.90;93.20;;;;;;5092355;28;20093;-58
2023/01/24 02:19:49;;;;;;;18.42;13.40;;;4.90;92.90;;;;;;5107637;28;20036;-58
2023/01/24 02:22:25;;;;;;;20.75;13.23;;;4.90;92.90;;;;;;5107571;28;20032;-58
2023/01/24 02:24:57;;;;;;;21.30;13.65;;;4.90;92.90;;;;;;5090101;28;20479;-58
2023/01/24 02:27:23;;;;;;;22.00;12.35;;;4.90;92.90;;;;;;5089375;28;20036;-58
2023/01/24 02:29:48;;;;;;;21.27;12.10;;;4.90;92.90;;;;;;5106499;28;20051;-58
2023/01/24 02:32:14;;;;;;;18.73;12.80;;;4.90;92.90;;;;;;5089035;28;20032;-58
2023/01/24 02:34:40;;;;;;;19.33;12.20;;;4.90;92.90;;;;;;5106156;28;20026;-58
2023/01/24 02:37:09;;;;;;;15.85;11.65;;;4.90;92.90;;;;;;5106095;28;20472;-58
2023/01/24 02:40:01;;;;;;;18.23;11.40;;;4.90;92.90;;;;;;5089377;28;20107;-58
2023/01/24 02:42:30;;;;;;;15.98;11.40;;;4.90;92.90;;;;;;5091870;28;20123;-58
2023/01/24 02:45:00;;;;;;;16.08;11.70;;;4.90;92.90;;;;;;5089240;28;20020;-58
2023/01/24 02:47:32;;;;;;;19.20;11.63;;;4.90;92.90;;;;;;5105733;28;20040;-59
2023/01/24 02:50:00;;;;;;;17.23;11.57;;;4.90;92.90;;;;;;5089944;28;20118;-58
2023/01/24 02:55:10;;;;;;;15.48;10.77;;;4.90;93.30;;;;;;5105817;28;20092;-57
2023/01/24 03:00:20;;;;;;;15.07;10.82;;;4.90;93.80;;;;;;5091361;28;20053;-59
2023/01/24 03:02:45;;;;;;;21.38;11.48;;;4.90;93.70;;;;;;5105669;28;20096;-58
2023/01/24 03:05:11;;;;;;;16.35;11.35;;;4.90;93.90;;;;;;5105493;28;20456;-59
2023/01/24 03:07:44;;;;;;;15.00;10.57;;;4.90;94.00;;;;;;5106778;28;20195;-58
2023/01/24 03:10:10;;;;;;;16.83;11.40;;;4.90;94.10;;;;;;5105461;28;20024;-58
2023/01/24 03:34:48;;;;;;;14.57;10.60;;;5.00;94.10;;;;;;5105108;28;20043;-58
2023/01/24 03:37:15;;;;;;;14.48;11.00;;;5.00;94.10;;;;;;5105225;28;20138;-58
2023/01/24 03:39:58;;;;;;;13.65;10.98;;;5.00;94.10;;;;;;5105122;28;20030;-58
2023/01/24 03:42:26;;;;;;;18.83;10.40;;;5.00;94.10;;;;;;5106227;28;20036;-58
2023/01/24 03:44:52;;;;;;;19.02;10.45;;;5.10;94.10;;;;;;5106148;28;20020;-58
2023/01/24 03:47:18;;;;;;;21.52;11.60;;;5.10;94.00;;;;;;5105811;28;20095;-58
2023/01/24 03:52:28;;;;;;;13.23;9.77;;;5.10;93.80;;;;;;5090359;28;20035;-58
2023/01/24 03:54:57;;;;;;;13.63;10.25;;;5.10;93.70;;;;;;5105624;28;20020;-58
2023/01/24 03:57:23;;;;;;;18.40;10.43;;;5.10;93.60;;;;;;5104378;28;20032;-58
2023/01/24 03:59:48;;;;;;;15.70;10.30;;;5.10;93.60;;;;;;5105656;28;20038;-58
2023/01/24 04:02:15;;;;;;;15.95;10.38;;;5.10;93.60;;;;;;5121130;28;20043;-59
2023/01/24 04:07:24;;;;;;;13.88;9.73;;;5.00;93.50;;;;;;5105691;28;20039;-58
2023/01/24 04:09:50;;;;;;;13.80;10.50;;;5.00;93.50;;;;;;5104143;28;20379;-59
2023/01/24 04:12:16;;;;;;;13.55;9.90;;;5.00;93.40;;;;;;5105334;28;20174;-58
2023/01/24 04:14:42;;;;;;;14.77;10.48;;;5.00;93.40;;;;;;5104052;28;20050;-58
2023/01/24 04:17:08;;;;;;;13.07;10.38;;;5.00;93.40;;;;;;5104737;28;20031;-59
2023/01/24 04:19:34;;;;;;;14.27;9.63;;;5.00;93.40;;;;;;5087371;28;20043;-58
2023/01/24 04:21:59;;;;;;;16.23;10.32;;;5.00;93.40;;;;;;5104391;28;20027;-59
2023/01/24 04:24:25;;;;;;;12.27;9.73;;;5.00;93.30;;;;;;5104220;28;20020;-59
2023/01/24 04:26:50;;;;;;;15.63;9.77;;;5.00;93.30;;;;;;5105510;28;20020;-58
2023/01/24 04:29:16;;;;;;;14.05;9.32;;;5.00;93.30;;;;;;5086960;28;20031;-58
2023/01/24 04:31:42;;;;;;;15.85;10.10;;;5.00;93.20;;;;;;5086891;28;20028;-58
2023/01/24 04:34:07;;;;;;;15.55;9.95;;;5.00;93.20;;;;;;5103843;28;20046;-58
2023/01/24 04:36:33;;;;;;;13.80;11.00;;;5.00;93.20;;;;;;5103831;28;20020;-58
2023/01/24 04:38:58;;;;;;;13.15;10.48;;;5.00;93.20;;;;;;5103973;28;20081;-58
2023/01/24 04:41:24;;;;;;;16.90;10.77;;;5.00;93.20;;;;;;5087126;28;20035;-58
2023/01/24 04:43:49;;;;;;;16.80;11.07;;;5.00;93.20;;;;;;5103660;28;20028;-58
2023/01/24 04:46:15;;;;;;;17.50;10.63;;;5.00;93.20;;;;;;5087117;28;20112;-59
2023/01/24 04:48:41;;;;;;;18.60;11.43;;;5.00;93.10;;;;;;5104886;28;20054;-58
2023/01/24 04:51:09;;;;;;;24.23;12.80;;;5.00;93.10;;;;;;5086648;28;20032;-58
2023/01/24 04:53:38;;;;;;;24.73;11.45;;;5.00;93.10;;;;;;5105122;28;20032;-58
2023/01/24 04:56:03;;;;;;;29.67;12.52;;;5.00;93.10;;;;;;5086836;28;20112;-59
2023/01/24 04:58:29;;;;;;;32.47;13.43;;;5.00;93.10;;;;;;5105063;28;20201;-58
2023/01/24 05:00:55;;;;;;;22.25;11.60;;;5.00;93.00;;;;;;5104838;28;20020;-58
2023/01/24 05:03:20;;;;;;;27.45;13.07;;;5.10;93.30;;;;;;5104988;28;20064;-58
2023/01/24 05:05:50;;;;;;;33.22;13.50;;;5.00;93.00;;;;;;5105050;28;20028;-59
2023/01/24 05:08:15;;;;;;;25.60;12.10;;;5.00;92.90;;;;;;5103637;28;20036;-59
2023/01/24 05:10:41;;;;;;;26.77;12.77;;;5.10;92.90;;;;;;5103556;28;20073;-58
2023/01/24 05:13:06;;;;;;;30.58;12.00;;;5.10;93.00;;;;;;5103339;28;20254;-59
2023/01/24 05:15:32;;;;;;;38.15;13.18;;;5.00;92.90;;;;;;5104946;28;20096;-59
2023/01/24 05:17:57;;;;;;;29.55;12.35;;;5.00;92.90;;;;;;5104877;28;20058;-59
2023/01/24 05:20:23;;;;;;;29.50;12.82;;;5.00;92.90;;;;;;5104945;28;20039;-59
2023/01/24 05:22:49;;;;;;;42.97;11.98;;;5.10;92.90;;;;;;5086554;28;20055;-58
2023/01/24 05:25:15;;;;;;;27.25;12.20;;;5.00;92.90;;;;;;5104855;28;20028;-59
2023/01/24 05:27:41;;;;;;;31.67;11.88;;;5.00;92.90;;;;;;5103357;28;20028;-58
2023/01/24 05:30:07;;;;;;;21.48;11.90;;;5.00;92.90;;;;;;5103574;28;20040;-59
2023/01/24 05:32:33;;;;;;;31.30;12.57;;;5.10;92.90;;;;;;5103099;28;20110;-58
2023/01/24 05:34:58;;;;;;;27.42;12.32;;;5.00;92.90;;;;;;5103309;28;20031;-58
2023/01/24 05:37:24;;;;;;;24.83;12.25;;;5.00;92.90;;;;;;5104695;28;20035;-59
2023/01/24 05:39:49;;;;;;;28.17;12.48;;;5.00;92.90;;;;;;5104580;28;20024;-58
2023/01/24 05:42:15;;;;;;;18.75;11.02;;;5.00;92.90;;;;;;5103014;28;20092;-58
2023/01/24 05:44:40;;;;;;;20.05;10.95;;;5.00;92.80;;;;;;5103151;28;20016;-58
2023/01/24 05:47:06;;;;;;;29.38;11.20;;;5.00;92.80;;;;;;5086112;28;20035;-59
2023/01/24 05:49:31;;;;;;;19.63;10.65;;;5.10;92.90;;;;;;5104520;28;20024;-59
2023/01/24 05:51:57;;;;;;;23.27;10.57;;;5.00;92.90;;;;;;5103111;28;20099;-59
2023/01/24 05:54:22;;;;;;;16.40;11.45;;;5.00;93.10;;;;;;5104205;28;20031;-58
2023/01/24 05:56:48;;;;;;;18.35;10.50;;;5.00;93.10;;;;;;5102957;28;20024;-58
2023/01/24 05:59:13;;;;;;;21.20;10.80;;;5.00;93.20;;;;;;5069350;28;20020;-59
2023/01/24 06:01:39;;;;;;;16.92;10.30;;;5.00;93.30;;;;;;5104415;28;20043;-59
2023/01/24 06:04:05;;;;;;;26.27;10.85;;;5.00;93.30;;;;;;5106946;28;20032;-58
2023/01/24 06:06:30;;;;;;;22.08;11.23;;;5.00;93.20;;;;;;5073082;28;20077;-58
2023/01/24 06:08:56;;;;;;;16.45;11.00;;;5.00;93.20;;;;;;5106869;28;20455;-58
2023/01/24 06:11:23;;;;;;;25.77;10.75;;;5.00;93.20;;;;;;5089775;28;20349;-58
2023/01/24 06:13:48;;;;;;;16.75;9.85;;;5.00;93.20;;;;;;5106505;28;20043;-58
2023/01/24 06:16:16;;;;;;;22.83;11.75;;;5.10;93.20;;;;;;5106468;28;20024;-58
2023/01/24 06:18:42;;;;;;;18.60;10.55;;;5.10;93.30;;;;;;5106480;28;20039;-59
2023/01/24 06:21:23;;;;;;;17.45;9.55;;;5.10;93.30;;;;;;5106341;28;20019;-59
2023/01/24 06:23:49;;;;;;;20.50;10.93;;;5.10;93.30;;;;;;5106300;28;20107;-58
2023/01/24 06:26:15;;;;;;;15.60;10.20;;;5.10;93.30;;;;;;5089457;28;20032;-59
2023/01/24 06:28:41;;;;;;;17.55;10.18;;;5.10;93.30;;;;;;5106174;28;20044;-58
2023/01/24 06:31:19;;;;;;;21.20;10.43;;;5.10;93.30;;;;;;5106323;28;20146;-59
2023/01/24 06:34:08;;;;;;;18.83;10.60;;;5.10;93.30;;;;;;5106111;28;20020;-58
2023/01/24 06:37:07;;;;;;;16.42;11.38;;;5.10;93.20;;;;;;5105967;28;20039;-58
2023/01/24 06:39:33;;;;;;;20.15;10.90;;;5.10;93.30;;;;;;5092097;28;20032;-59
2023/01/24 06:41:59;;;;;;;16.00;10.10;;;5.10;93.30;;;;;;5107347;28;20036;-59
2023/01/24 06:44:25;;;;;;;19.02;10.57;;;5.00;93.20;;;;;;5105894;28;20028;-59
2023/01/24 06:46:50;;;;;;;15.48;10.25;;;5.10;93.20;;;;;;5089108;28;20028;-59
2023/01/24 06:49:16;;;;;;;15.35;10.60;;;5.00;93.20;;;;;;5106946;28;20036;-58
2023/01/24 06:51:41;;;;;;;19.15;10.25;;;5.10;93.20;;;;;;5107056;28;20042;-59
2023/01/24 06:54:07;;;;;;;17.15;10.02;;;5.00;93.20;;;;;;5088630;28;20107;-59
2023/01/24 06:56:33;;;;;;;19.50;10.05;;;5.00;93.20;;;;;;5107002;28;20505;-58
2023/01/24 06:58:59;;;;;;;19.35;9.45;;;5.00;93.20;;;;;;5106795;28;20024;-58
2023/01/24 07:01:24;;;;;;;16.02;9.25;;;5.00;93.20;;;;;;5086952;28;20051;-59
2023/01/24 07:03:50;;;;;;;12.10;9.27;;;5.00;93.20;;;;;;5117683;28;20032;-59
2023/01/24 07:06:15;;;;;;;14.32;9.15;;;5.00;93.20;;;;;;5105412;28;20484;-59
2023/01/24 07:08:41;;;;;;;17.85;9.85;;;5.00;93.20;;;;;;5108696;28;20028;-59
2023/01/24 07:11:06;;;;;;;18.52;9.98;;;5.00;93.20;;;;;;5103114;28;20111;-59
2023/01/24 07:13:32;;;;;;;13.27;9.95;;;5.00;93.20;;;;;;5095608;28;20074;-59
2023/01/24 07:16:01;;;;;;;17.88;9.88;;;5.00;93.20;;;;;;5108601;28;20031;-59
2023/01/24 07:18:27;;;;;;;15.00;9.15;;;5.00;93.20;;;;;;5097904;28;20084;-58
2023/01/24 07:20:53;;;;;;;13.25;9.05;;;5.00;93.20;;;;;;5086519;28;20034;-59
2023/01/24 07:23:21;;;;;;;14.45;9.75;;;5.10;93.20;;;;;;5106372;28;20051;-59
2023/01/24 07:25:47;;;;;;;17.90;9.45;;;5.00;93.10;;;;;;5100261;28;21436;-59
2023/01/24 07:28:13;;;;;;;15.85;9.43;;;5.00;93.10;;;;;;5102691;28;20036;-58
2023/01/24 07:30:38;;;;;;;13.68;9.35;;;5.00;93.20;;;;;;5105299;28;20081;-58
2023/01/24 07:33:04;;;;;;;15.80;9.85;;;5.00;93.20;;;;;;5091038;28;20051;-58
2023/01/24 07:35:29;;;;;;;18.58;9.95;;;5.00;93.10;;;;;;5105199;28;20039;-58
2023/01/24 07:37:55;;;;;;;14.02;9.10;;;5.00;93.10;;;;;;5114267;28;20038;-59
2023/01/24 07:40:21;;;;;;;13.38;9.35;;;5.00;93.10;;;;;;5107431;28;20088;-59
2023/01/24 07:42:46;;;;;;;16.83;9.68;;;5.00;93.10;;;;;;5105162;28;20071;-58
2023/01/24 07:45:12;;;;;;;13.95;8.82;;;5.00;93.10;;;;;;5103487;28;20043;-59
2023/01/24 07:47:37;;;;;;;27.33;10.35;;;5.00;93.10;;;;;;5117628;28;20027;-59
2023/01/24 07:50:03;;;;;;;23.27;9.95;;;5.00;93.20;;;;;;5100581;28;20218;-59
2023/01/24 07:52:28;;;;;;;33.97;10.52;;;5.00;93.30;;;;;;5100093;28;20177;-59
2023/01/24 07:54:54;;;;;;;22.45;9.55;;;5.10;93.20;;;;;;5104226;28;20020;-59
2023/01/24 07:57:19;;;;;;;24.95;9.82;;;5.10;93.20;;;;;;5104022;28;20120;-59
2023/01/24 07:59:45;;;;;;;19.17;9.23;;;5.10;93.10;;;;;;5100229;28;20020;-58
2023/01/24 08:02:11;;;;;;;22.25;10.02;;;5.10;93.10;;;;;;5099220;28;20057;-59
2023/01/24 08:04:37;;;;;;;14.82;9.40;;;5.10;93.00;;;;;;5099128;28;20456;-59
2023/01/24 08:07:17;;;;;;;27.60;9.77;;;5.10;93.00;;;;;;5098686;28;20032;-59
2023/01/24 08:09:44;;;;;;;17.80;9.20;;;5.10;93.00;;;;;;5105668;28;20103;-59
2023/01/24 08:12:09;;;;;;;20.60;10.13;;;5.10;92.90;;;;;;5103393;28;20062;-58
2023/01/24 08:14:35;;;;;;;24.02;9.23;;;5.10;93.00;;;;;;5103306;28;20130;-59
2023/01/24 08:17:00;;;;;;;22.85;10.57;;;5.10;93.00;;;;;;5099586;28;20133;-58
2023/01/24 08:19:26;;;;;;;19.63;9.60;;;5.10;93.00;;;;;;5107351;28;20097;-59
2023/01/24 08:21:52;;;;;;;19.95;8.82;;;5.10;93.00;;;;;;5103439;28;20044;-59
2023/01/24 08:24:17;;;;;;;19.60;9.13;;;5.10;93.00;;;;;;5100268;28;20028;-59
2023/01/24 08:26:46;;;;;;;26.33;9.60;;;5.10;93.00;;;;;;5088896;28;20091;-59
2023/01/24 08:29:12;;;;;;;24.08;10.13;;;5.10;92.90;;;;;;5098000;28;20028;-58
2023/01/24 08:31:37;;;;;;;20.30;9.00;;;5.10;92.90;;;;;;5101752;28;20503;-59
2023/01/24 08:34:03;;;;;;;22.85;9.70;;;5.10;92.80;;;;;;5102827;28;20043;-58
2023/01/24 08:36:28;;;;;;;35.05;10.45;;;5.10;92.80;;;;;;5102157;28;20137;-58
2023/01/24 08:38:54;;;;;;;30.92;11.43;;;5.10;92.80;;;;;;5102980;28;20490;-58
2023/01/24 08:41:19;;;;;;;29.23;10.18;;;5.10;92.80;;;;;;5105143;28;20425;-59
2023/01/24 08:43:45;;;;;;;25.45;9.57;;;5.10;92.90;;;;;;5111485;28;20032;-58
2023/01/24 08:46:10;;;;;;;20.08;10.27;;;5.20;92.90;;;;;;5121452;28;20020;-58
2023/01/24 08:48:36;;;;;;;23.90;11.07;;;5.20;92.90;;;;;;5106513;28;20114;-58
2023/01/24 08:51:06;;;;;;;23.13;9.50;;;5.20;92.90;;;;;;5123856;28;20053;-58
2023/01/24 08:53:32;;;;;;;30.35;10.20;;;5.20;92.80;;;;;;5123257;28;20059;-58
2023/01/24 08:55:57;;;;;;;22.55;10.85;;;5.20;92.80;;;;;;5106968;28;20035;-58
2023/01/24 08:58:23;;;;;;;29.10;10.60;;;5.20;93.10;;;;;;5122320;28;20471;-59
2023/01/24 09:00:48;;;;;;;22.27;10.65;;;5.20;92.80;;;;;;5123230;28;20025;-59
2023/01/24 09:03:15;;;;;;;35.92;10.23;;;5.20;92.90;;;;;;5091594;28;20039;-58
2023/01/24 09:05:41;;;;;;;31.17;10.73;;;5.30;92.80;;;;;;5102102;28;20034;-59
2023/01/24 09:08:06;;;;;;;31.52;10.50;;;5.20;92.80;;;;;;5104920;28;20119;-59
2023/01/24 09:10:32;;;;;;;47.25;10.50;;;5.20;92.80;;;;;;5103603;28;20069;-58
2023/01/24 09:12:57;;;;;;;41.72;11.38;;;5.30;92.80;;;;;;5104615;28;20028;-59
2023/01/24 09:15:23;;;;;;;41.63;11.25;;;5.30;92.80;;;;;;5104160;28;20107;-58
2023/01/24 09:17:49;;;;;;;36.08;11.05;;;5.20;92.70;;;;;;5104774;28;20056;-58
2023/01/24 09:20:14;;;;;;;38.60;10.85;;;5.30;92.80;;;;;;5104515;28;20118;-58
2023/01/24 09:22:40;;;;;;;47.53;10.73;;;5.30;92.80;;;;;;5102933;28;20043;-58
2023/01/24 09:25:07;;;;;;;37.53;11.13;;;5.30;92.70;;;;;;5086387;28;20039;-58
2023/01/24 09:27:33;;;;;;;51.55;11.68;;;5.30;92.70;;;;;;5103570;28;20051;-59
2023/01/24 09:29:59;;;;;;;54.78;12.32;;;5.30;92.70;;;;;;5103511;28;20535;-58
2023/01/24 09:32:24;;;;;;;39.72;12.40;;;5.30;92.70;;;;;;5104636;28;20059;-58
2023/01/24 09:34:50;;;;;;;36.70;11.65;;;5.30;92.70;;;;;;5085954;28;20025;-58
2023/01/24 09:37:17;;;;;;;50.80;12.05;;;5.30;92.70;;;;;;5120203;28;20033;-58
2023/01/24 09:39:43;;;;;;;63.80;13.75;;;5.30;92.70;;;;;;5106413;28;20035;-58
2023/01/24 09:42:25;;;;;;;73.15;13.82;;;5.30;92.70;;;;;;5106603;28;20062;-59
2023/01/24 09:45:06;;;;;;;68.28;13.55;;;5.40;93.00;;;;;;5091263;28;20020;-59
2023/01/24 09:47:39;;;;;;;55.63;13.10;;;5.40;92.70;;;;;;5090648;28;20031;-58
2023/01/24 09:50:09;;;;;;;55.53;13.30;;;5.40;92.70;;;;;;5086011;28;20035;-58
2023/01/24 09:52:37;;;;;;;49.17;12.30;;;5.40;92.70;;;;;;5086461;28;20036;-59
2023/01/24 09:55:25;;;;;;;104.18;16.52;;;5.40;92.60;;;;;;5086294;28;20021;-58
2023/01/24 09:58:08;;;;;;;65.68;13.60;;;5.40;92.60;;;;;;5086301;28;20028;-58
2023/01/24 10:00:36;;;;;;;65.35;13.68;;;5.40;92.60;;;;;;5086292;28;20128;-59
2023/01/24 10:03:02;;;;;;;46.47;12.68;;;5.50;92.60;;;;;;5086638;28;20503;-57
2023/01/24 10:05:40;;;;;;;51.17;11.70;;;5.50;92.60;;;;;;5086859;28;20032;-59
2023/01/24 10:08:27;;;;;;;44.63;13.07;;;5.50;92.50;;;;;;5086491;28;20040;-59
2023/01/24 10:11:18;;;;;;;54.90;12.40;;;5.50;92.50;;;;;;5086533;28;20051;-58
2023/01/24 10:14:12;;;;;;;143.48;20.58;;;5.50;92.40;;;;;;5086622;28;20029;-58
2023/01/24 10:17:00;;;;;;;73.53;13.70;;;5.50;92.40;;;;;;5085499;28;20021;-58
2023/01/24 10:19:40;;;;;;;163.30;22.45;;;5.50;92.40;;;;;;5087346;28;20016;-59
2023/01/24 10:23:00;;;;;;;69.22;15.65;;;5.50;92.40;;;;;;5086962;28;20033;-59
2023/01/24 10:25:33;;;;;;;65.25;13.43;;;5.50;92.40;;;;;;5023198;28;20053;-59
2023/01/24 10:28:01;;;;;;;65.10;12.32;;;5.50;92.30;;;;;;5081277;28;20040;-59
2023/01/24 10:30:39;;;;;;;44.97;11.90;;;5.50;92.30;;;;;;5083984;28;20040;-59
2023/01/24 10:33:09;;;;;;;41.88;11.48;;;5.50;92.30;;;;;;5083599;28;20094;-59
2023/01/24 10:35:51;;;;;;;48.65;13.70;;;5.60;92.30;;;;;;5084004;28;20074;-59
2023/01/24 10:38:17;;;;;;;55.03;12.52;;;5.60;92.20;;;;;;5084053;28;20039;-59
2023/01/24 10:41:04;;;;;;;46.08;12.32;;;5.60;92.10;;;;;;5084518;28;20016;-59
2023/01/24 10:43:29;;;;;;;50.08;13.65;;;5.60;92.10;;;;;;5085523;28;20048;-58
2023/01/24 10:46:01;;;;;;;43.55;11.95;;;5.60;92.10;;;;;;5085292;28;20077;-59
2023/01/24 10:48:38;;;;;;;49.60;12.85;;;5.60;92.10;;;;;;5084738;28;20106;-58
2023/01/24 10:51:14;;;;;;;40.65;12.43;;;5.60;92.10;;;;;;5085365;28;20107;-59
2023/01/24 10:53:39;;;;;;;45.53;12.80;;;5.70;92.20;;;;;;5085190;28;20169;-58
2023/01/24 10:56:05;;;;;;;40.47;12.30;;;5.60;92.10;;;;;;5085035;28;20096;-59
2023/01/24 10:59:02;;;;;;;45.17;12.98;;;5.70;92.20;;;;;;5084759;28;20082;-58
2023/01/24 11:01:36;;;;;;;52.28;13.20;;;5.70;92.40;;;;;;5085135;28;20116;-58
2023/01/24 11:04:15;;;;;;;44.72;13.60;;;5.70;92.10;;;;;;5084918;28;20029;-58
2023/01/24 11:06:40;;;;;;;56.83;12.77;;;5.70;92.10;;;;;;5084674;28;20028;-58
2023/01/24 11:09:11;;;;;;;37.33;12.38;;;5.70;92.10;;;;;;5084399;28;20086;-59
2023/01/24 11:11:45;;;;;;;38.00;11.70;;;5.70;92.10;;;;;;5085967;28;20032;-58
2023/01/24 11:14:34;;;;;;;57.45;13.65;;;5.70;92.10;;;;;;5084387;28;20384;-58
2023/01/24 11:17:01;;;;;;;47.63;13.57;;;5.80;92.20;;;;;;5084188;28;20357;-58
2023/01/24 11:19:26;;;;;;;48.03;12.60;;;5.80;92.30;;;;;;5084702;28;20021;-59
2023/01/24 11:21:56;;;;;;;53.47;14.18;;;5.70;92.30;;;;;;5085754;28;20049;-58
2023/01/24 11:24:22;;;;;;;50.60;13.68;;;5.80;92.30;;;;;;5084442;28;20072;-59
2023/01/24 11:26:53;;;;;;;56.53;14.15;;;5.80;92.30;;;;;;5067401;28;20068;-59
2023/01/24 11:29:19;;;;;;;70.78;14.73;;;5.80;92.30;;;;;;5085412;28;20085;-59
2023/01/24 11:31:51;;;;;;;69.18;15.20;;;5.80;92.40;;;;;;5083927;28;20037;-59
2023/01/24 11:34:54;;;;;;;61.17;14.30;;;5.80;92.30;;;;;;5083933;28;20028;-59
2023/01/24 11:37:38;;;;;;;83.00;16.25;;;5.80;92.40;;;;;;5083841;28;20112;-59
2023/01/24 11:40:07;;;;;;;77.45;16.17;;;5.90;92.50;;;;;;5084153;28;20032;-59
2023/01/24 11:42:48;;;;;;;77.30;16.33;;;5.90;92.60;;;;;;5085373;28;20040;-58
2023/01/24 11:45:20;;;;;;;73.03;15.23;;;5.90;92.60;;;;;;5067060;28;20051;-59
2023/01/24 11:47:57;;;;;;;68.82;15.38;;;6.00;92.60;;;;;;5083671;28;20044;-59
2023/01/24 11:50:50;;;;;;;69.20;15.35;;;6.00;92.60;;;;;;5083781;28;20032;-59
2023/01/24 11:53:38;;;;;;;99.43;17.08;;;6.00;92.90;;;;;;5084816;28;20067;-58
2023/01/24 11:56:13;;;;;;;65.55;15.55;;;6.00;92.50;;;;;;5086467;28;20032;-58
2023/01/24 11:59:18;;;;;;;69.80;15.07;;;6.00;92.40;;;;;;5084499;28;20064;-59
2023/01/24 12:02:17;;;;;;;69.30;15.52;;;6.00;92.50;;;;;;5099731;28;20032;-59
2023/01/24 12:04:45;;;;;;;79.43;14.75;;;6.00;92.50;;;;;;5085006;28;20016;-58
2023/01/24 12:07:18;;;;;;;74.45;15.38;;;6.00;92.50;;;;;;5083257;28;20039;-59
2023/01/24 12:10:08;;;;;;;76.20;16.02;;;6.10;92.50;;;;;;5066003;28;20613;-59
2023/01/24 12:12:53;;;;;;;88.82;14.65;;;6.00;92.40;;;;;;5083176;28;20062;-58
2023/01/24 12:15:34;;;;;;;89.75;15.73;;;6.10;92.50;;;;;;5083715;28;20024;-59
2023/01/24 12:18:12;;;;;;;78.43;14.35;;;6.10;92.50;;;;;;5118704;28;20059;-58
2023/01/24 12:20:46;;;;;;;84.15;16.17;;;6.10;92.60;;;;;;5088054;28;20071;-59
2023/01/24 12:23:20;;;;;;;63.03;14.80;;;6.10;92.50;;;;;;5098576;28;20108;-58
2023/01/24 12:25:45;;;;;;;65.50;13.13;;;6.10;92.50;;;;;;5082830;28;20048;-59
2023/01/24 12:28:36;;;;;;;56.08;14.35;;;6.10;92.40;;;;;;5081215;28;20036;-58
2023/01/24 12:31:02;;;;;;;60.42;13.05;;;6.10;92.40;;;;;;5073406;28;20480;-59
2023/01/24 12:33:56;;;;;;;73.10;13.43;;;6.10;92.30;;;;;;5082949;28;20464;-59
2023/01/24 12:36:34;;;;;;;48.30;12.80;;;6.20;92.30;;;;;;5087813;28;20055;-59
2023/01/24 12:39:00;;;;;;;67.57;13.95;;;6.20;92.30;;;;;;5086173;28;20429;-59
2023/01/24 12:41:33;;;;;;;70.38;12.60;;;6.20;92.30;;;;;;5082774;28;20020;-58
2023/01/24 12:44:25;;;;;;;76.35;13.93;;;6.20;92.30;;;;;;5083337;28;20051;-59
2023/01/24 12:47:12;;;;;;;50.28;13.32;;;6.20;92.30;;;;;;5084431;28;20036;-59
2023/01/24 12:50:27;;;;;;;90.18;16.50;;;6.20;92.20;;;;;;5101978;28;20066;-58
2023/01/24 12:53:03;;;;;;;78.30;14.63;;;6.20;92.30;;;;;;5005758;28;20038;-59
2023/01/24 12:55:35;;;;;;;69.32;14.73;;;6.20;92.30;;;;;;5065079;28;20270;-59
2023/01/24 12:58:21;;;;;;;56.70;13.40;;;6.20;92.30;;;;;;5082703;28;20127;-59
2023/01/24 13:01:15;;;;;;;67.13;12.90;;;6.20;92.30;;;;;;5099738;28;20058;-58
2023/01/24 13:03:44;;;;;;;58.78;11.52;;;6.20;92.20;;;;;;5102999;28;20096;-58
2023/01/24 13:06:19;;;;;;;47.33;11.52;;;6.20;92.20;;;;;;5104436;28;20024;-58
2023/01/24 13:08:49;;;;;;;49.80;12.70;;;6.20;92.20;;;;;;5103485;28;20036;-58
2023/01/24 13:11:15;;;;;;;43.25;11.65;;;6.20;92.20;;;;;;5103289;28;20028;-59
2023/01/24 13:13:51;;;;;;;32.88;10.90;;;6.30;92.20;;;;;;5108626;28;20102;-58
2023/01/24 13:16:37;;;;;;;46.10;11.95;;;6.30;92.20;;;;;;5102976;28;20084;-58
2023/01/24 13:19:18;;;;;;;49.42;11.80;;;6.20;92.10;;;;;;5070324;28;20028;-59
2023/01/24 13:21:51;;;;;;;57.15;11.73;;;6.30;92.20;;;;;;5086873;28;20040;-58
2023/01/24 13:24:33;;;;;;;39.40;10.50;;;6.30;92.10;;;;;;5069856;28;20032;-59
2023/01/24 13:27:36;;;;;;;40.55;10.98;;;6.30;92.10;;;;;;5087010;28;20032;-54
2023/01/24 13:30:23;;;;;;;39.97;10.75;;;6.30;92.10;;;;;;5058397;28;20040;-56
2023/01/24 13:32:50;;;;;;;40.45;10.70;;;6.30;92.10;;;;;;5121950;28;20040;-56